Record high temperature 35.2°C Record low temperature -28.5°C Record high gust 73.6 km/h Record high average 52.2 km/h Record daily rain 78.0 mm Record low windchill -39.6°C Record high barometer 1049.5 hPa Record low barometer 973.0 hPa
Daily high pressure 1014 hPa Daily low pressure 1010 hPa Daily low windchill -5.6°C Daily high heat index 3.3°C Daily high gust speed 16.7 kmh N Daily high average speed 10.8 kmh ENE
Beaconsfield Home Weather Data WMR-968
LAST READING AT TIME: 17:00 DATE: December 07 2016, time of next update: 17:05
Current WeatherNight time/Dry/overcast Current Temperature 2.8°C (37.0°F), Apparent temp -0.5°C
Maximum Temperature (since midnight)3.3°C at: 14:24 Minimum Temperature (since midnight)-1.4°C at: 03:47
Average windspeed (ten minute)5.9 kmh (3.2 kts) Wind Direction (ten minute)SW (222°)
Windchill Temperature -0.6°C Maximum Gust (last hour)12.9 kmh (7.0 kts) at: 16:59
Maximum Gust (since midnight)16.7 kmh (9.0 kts) at: 00:43 Maximum 1 minute average (since midnight)10.8 kmh (5.8 kts) at: 00:00
Rainfall (last hour)0.0 mm Rainfall (since midnight)0.6 mm (0.02 in.) at 15:49
Rainfall This month 15.4 mm (0.61 in.) Rainfall To date this year 687.4 mm (27.06 in.)
Maximum rain per minute (last hour)0.0 mm/min Maximum rain per hour (last 6 hours)0.4 mm/hour
Yesterdays rainfall 1.4 mm DewPoint -5.4°C (Wet Bulb :0.2°C )
Humidity 55 %, Humidex -0.5°C Barometer corrected to msl1012 hPa
Pressure change +1 hPa (last hour) Trend (last hour)RISING SLOWLY
Pressure change (last 12 hours)+0 hPa Pressure change (last 6 hours)+2 hPa
Current Indoor Temp. 19.7°C
Current Indoor Hum. 31%
Current Solar 0 W/mē
Maximum solar (since midnight) 0 W/mē Minimum solar (since midnight)1000 W/mē
Current 00:00 hours of sunshine today, current sky: Night time/Dry/overcast
Sunshine hours for the year: 35:56 hrs Sunshine hours for the month: 00:00 hrs
Current evapotranspiration rate 0.7 mm per day. Yesterday's reading 0.6




Weather report/warning/Metars

Montreal / Pierre Elliot Trudeau International Airport, Que, Canada (CYUL) 45-28N 073-45W 36M
Dec 07, 2016 - 04:00 PM EST / 2016.12.07 2100 UTC
Wind: from the NNW (330 degrees) at 2 MPH (2 KT):0
Visibility: 10 mile(s):0
Sky conditions: overcast
Temperature: 35 F (2 C)
Dew Point: 33 F (1 C)
Relative Humidity: 93%
Pressure (altimeter): 29.88 in. Hg (1011 hPa)
ob: CYUL 072100Z 33002KT 10SM FEW030 BKN040 OVC055 02/01 A2988 RMK SC1SC4SC3 SLP122
cycle: 21
Sherbrooke, Que., Canada (CYSC) 45-24N 071-53W
Dec 07, 2016 - 04:00 PM EST / 2016.12.07 2100 UTC
Wind: from the SW (230 degrees) at 7 MPH (6 KT):0
Visibility: 9 mile(s):0
Sky conditions: overcast
Temperature: 33 F (1 C)
Windchill: 26 F (-3 C):1
Dew Point: 32 F (0 C)
Relative Humidity: 93%
Pressure (altimeter): 29.86 in. Hg (1011 hPa)
ob: CYSC 072100Z AUTO 23006KT 9SM SCT005 OVC020 01/00 A2986 RMK SLP125
cycle: 21
St Jovite Automatic Weather Reporting System , Canada (CWJT) 46-04N 074-32W
Dec 07, 2016 - 04:00 PM EST / 2016.12.07 2100 UTC
Wind: from the SSW (200 degrees) at 2 MPH (2 KT):0
Temperature: 32.9 F (0.5 C)
Dew Point: 31.6 F (-0.2 C)
Relative Humidity: 95%
Pressure tendency: 0.03 inches (1.0 hPa) higher than three hours ago
ob: CWJT 072100Z AUTO 20002KT 01/M00 RMK AO1 SLP112 T00051002 53010
cycle: 21
Ste Anne De Bell 1, Canada (CWVQ) 45-26N 073-56W
Dec 07, 2016 - 04:00 PM EST / 2016.12.07 2100 UTC
Wind: from the W (260 degrees) at 2 MPH (2 KT):0
Temperature: 35.8 F (2.1 C)
Dew Point: 34.7 F (1.5 C)
Relative Humidity: 95%
ob: CWVQ 072100Z AUTO 26002KT 02/02 RMK AO1 SOG 01 3016 SLP122 T00210015
cycle: 21
Montreal / Mirabel, Canada (CYMX) 45-41N 074-02W
Dec 07, 2016 - 04:00 PM EST / 2016.12.07 2100 UTC
Wind: from the SW (230 degrees) at 3 MPH (3 KT) (direction variable):0
Visibility: 6 mile(s):0
Sky conditions: overcast
Weather: mist
Temperature: 32 F (0 C)
Dew Point: 32 F (0 C)
Relative Humidity: 100%
Pressure (altimeter): 29.88 in. Hg (1011 hPa)
ob: CYMX 072100Z 23003KT 190V250 6SM BR FEW008 OVC050 M00/M00 A2988 RMK SF2SC6 SLP123
cycle: 21
L'Acadie, Canada (CWIZ) 45-18N 073-21W
Dec 07, 2016 - 04:00 PM EST / 2016.12.07 2100 UTC
Wind: from the SW (230 degrees) at 5 MPH (4 KT):0
Temperature: 36.9 F (2.7 C)
Dew Point: 33.1 F (0.6 C)
Relative Humidity: 86%
ob: CWIZ 072100Z AUTO 23004KT 03/01 RMK AO1 SOG 04 T00270006
cycle: 21
St Anicet, Canada (CWBZ) 45-07N 074-17W 49M
Dec 07, 2016 - 04:00 PM EST / 2016.12.07 2100 UTC
Wind: from the WSW (250 degrees) at 8 MPH (7 KT):0
Temperature: 38.3 F (3.5 C)
Dew Point: 31.3 F (-0.4 C)
Relative Humidity: 75%
Pressure tendency: 0.06 inches (1.9 hPa) higher than three hours ago
ob: CWBZ 072100Z AUTO 25007KT 04/M00 RMK AO1 SLP127 T00351004 53019
cycle: 21
Mount Washington, NH, United States (KMWN) 44-16N 071-18W 1910M
Dec 07, 2016 - 03:47 PM EST / 2016.12.07 2047 UTC
Wind: from the W (280 degrees) at 51 MPH (44 KT):0
Visibility: less than 1 mile:0
Sky conditions: obscured
Weather: light snow showers; freezing fog
Temperature: 17 F (-8 C)
Windchill: -7 F (-22 C):2
Dew Point: 17 F (-8 C)
Relative Humidity: 100%
ob: KMWN 072047Z 28044KT 0SM -SHSN FZFG VV000 M08/M08 RMK VRY LGT ICG
cycle: 21
Vancouver International Air-Port, B. C., Canada (CYVR) 49-11N 123-10W 2M
Dec 07, 2016 - 04:00 PM EST / 2016.12.07 2100 UTC
Wind: from the SSE (150 degrees) at 3 MPH (3 KT) (direction variable):0
Visibility: 30 mile(s):0
Sky conditions: mostly clear
Temperature: 32 F (0 C)
Dew Point: 14 F (-10 C)
Relative Humidity: 46%
Pressure (altimeter): 30.49 in. Hg (1032 hPa)
ob: CYVR 072100Z 15003KT 090V210 30SM FEW050 M00/M10 A3049 RMK CF1 CF TR CONTRAILS SLP326
cycle: 21



The data is logged at two minute intervals, but there is data recorded every minute.

Use the RELOAD facility on your browser to retrieve the latest data.

Click here for a daily update of the averages/extremes to date for the month

Click here for Real Time Weather



Created by "Weather Display" software version 10.37S at this start time/date 18:50:50 2016-11-25